Time,TemperatureF,DewpointF,PressureIn,WindDirection,WindDirectionDegrees,WindSpeedMPH,WindSpeedGustMPH,Humidity,HourlyPrecipIn,Conditions,Clouds,dailyrainin,SoftwareType,DateUTC
2013-04-12 02:27:00,27.0,6.4,23.33,NW,324,0.0,0.0,41,0.00,,---,0.00,VWS V14.00,2013-04-12 09:27:00,
2013-04-12 02:33:00,26.8,6.2,23.33,NW,324,0.0,0.0,41,0.00,,---,0.00,VWS V14.00,2013-04-12 09:33:00,
2013-04-12 02:38:00,26.8,6.2,23.33,NW,324,0.0,0.0,41,0.00,,---,0.00,VWS V14.00,2013-04-12 09:38:00,
2013-04-12 02:43:00,26.6,6.6,23.33,NW,324,0.0,0.0,42,0.00,,---,0.00,VWS V14.00,2013-04-12 09:43:00,
2013-04-12 02:48:00,26.6,6.6,23.33,NW,324,0.0,0.0,42,0.00,,---,0.00,VWS V14.00,2013-04-12 09:48:00,
2013-04-12 02:53:00,26.4,6.4,23.33,NW,324,0.0,0.0,42,0.00,,---,0.00,VWS V14.00,2013-04-12 09:53:00,
2013-04-12 02:58:00,26.2,6.3,23.33,NW,324,0.0,0.0,42,0.00,,---,0.00,VWS V14.00,2013-04-12 09:58:00,
2013-04-12 03:03:00,26.2,6.3,23.33,NW,324,0.0,0.0,42,0.00,,---,0.00,VWS V14.00,2013-04-12 10:03:00,
2013-04-12 03:09:00,26.1,6.1,23.33,NW,324,0.0,0.0,42,0.00,,---,0.00,VWS V14.00,2013-04-12 10:09:00,
2013-04-12 03:14:00,26.1,6.1,23.33,NW,324,0.0,0.0,42,0.00,,---,0.00,VWS V14.00,2013-04-12 10:14:00,
2013-04-12 03:19:00,26.1,6.1,23.33,NW,324,0.0,0.0,42,0.00,,---,0.00,VWS V14.00,2013-04-12 10:19:00,
2013-04-12 03:24:00,26.1,6.1,23.33,NW,324,0.0,0.0,42,0.00,,---,0.00,VWS V14.00,2013-04-12 10:24:00,
2013-04-12 03:29:00,25.9,6.0,23.33,NW,324,0.0,0.0,42,0.00,,---,0.00,VWS V14.00,2013-04-12 10:29:00,
2013-04-12 03:34:00,25.9,6.0,23.33,NW,324,0.0,0.0,42,0.00,,---,0.00,VWS V14.00,2013-04-12 10:34:00,
2013-04-12 03:39:00,25.9,6.0,23.33,NW,324,0.0,0.0,42,0.00,,---,0.00,VWS V14.00,2013-04-12 10:39:00,
2013-04-12 03:45:00,25.9,6.0,23.33,NW,324,0.0,0.0,42,0.00,,---,0.00,VWS V14.00,2013-04-12 10:45:00,
2013-04-12 03:50:00,25.7,5.8,23.33,NW,324,0.0,0.0,42,0.00,,---,0.00,VWS V14.00,2013-04-12 10:50:00,
2013-04-12 03:55:00,25.7,5.8,23.33,NW,324,0.0,0.0,42,0.00,,---,0.00,VWS V14.00,2013-04-12 10:55:00,
2013-04-12 04:00:00,25.5,5.6,23.33,NW,324,0.0,0.0,42,0.00,,---,0.00,VWS V14.00,2013-04-12 11:00:00,
2013-04-12 04:05:00,25.5,5.6,23.33,NW,324,0.0,0.0,42,0.00,,---,0.00,VWS V14.00,2013-04-12 11:05:00,
2013-04-12 04:10:00,25.3,5.5,23.33,NW,324,0.0,0.0,42,0.00,,---,0.00,VWS V14.00,2013-04-12 11:10:00,
2013-04-12 04:15:00,25.3,5.5,23.33,NW,324,0.0,0.0,42,0.00,,---,0.00,VWS V14.00,2013-04-12 11:15:00,
2013-04-12 04:20:00,25.3,5.5,23.33,NW,324,0.0,0.0,42,0.00,,---,0.00,VWS V14.00,2013-04-12 11:20:00,
2013-04-12 04:26:00,25.3,5.5,23.33,NW,324,0.0,0.0,42,0.00,,---,0.00,VWS V14.00,2013-04-12 11:26:00,
2013-04-12 04:31:00,25.2,5.3,23.33,NW,324,0.0,0.0,42,0.00,,---,0.00,VWS V14.00,2013-04-12 11:31:00,
2013-04-12 04:36:00,25.2,5.3,23.33,NW,324,0.0,0.0,42,0.00,,---,0.00,VWS V14.00,2013-04-12 11:36:00,
2013-04-12 04:41:00,25.0,5.1,23.33,NW,324,0.0,0.0,42,0.00,,---,0.00,VWS V14.00,2013-04-12 11:41:00,
2013-04-12 04:46:00,24.8,5.0,23.33,NW,324,0.0,0.0,42,0.00,,---,0.00,VWS V14.00,2013-04-12 11:46:00,
2013-04-12 04:51:00,24.8,5.0,23.33,NW,324,0.0,0.0,42,0.00,,---,0.00,VWS V14.00,2013-04-12 11:51:00,
2013-04-12 04:56:00,24.8,5.0,23.33,NW,324,0.0,0.0,42,0.00,,---,0.00,VWS V14.00,2013-04-12 11:56:00,
2013-04-12 05:02:00,24.8,5.0,23.33,NW,324,0.0,0.0,42,0.00,,---,0.00,VWS V14.00,2013-04-12 12:02:00,
2013-04-12 05:07:00,24.6,4.8,23.33,NW,324,0.0,0.0,42,0.00,,---,0.00,VWS V14.00,2013-04-12 12:07:00,
2013-04-12 05:12:00,24.4,4.7,23.33,NW,324,0.0,0.0,42,0.00,,---,0.00,VWS V14.00,2013-04-12 12:12:00,
2013-04-12 05:18:00,24.4,4.7,23.33,NW,324,0.0,0.0,42,0.00,,---,0.00,VWS V14.00,2013-04-12 12:18:00,
2013-04-12 05:23:00,24.6,4.8,23.33,NW,324,0.0,0.0,42,0.00,,---,0.00,VWS V14.00,2013-04-12 12:23:00,
2013-04-12 05:28:00,24.4,4.7,23.33,NW,324,0.0,0.0,42,0.00,,---,0.00,VWS V14.00,2013-04-12 12:28:00,
2013-04-12 05:33:00,24.4,4.7,23.33,NW,324,0.0,0.0,42,0.00,,---,0.00,VWS V14.00,2013-04-12 12:33:00,
2013-04-12 05:38:00,24.4,4.7,23.33,NW,324,0.0,0.0,42,0.00,,---,0.00,VWS V14.00,2013-04-12 12:38:00,
2013-04-12 05:43:00,24.3,4.5,23.33,NW,324,0.0,0.0,42,0.00,,---,0.00,VWS V14.00,2013-04-12 12:43:00,
2013-04-12 05:48:00,24.1,4.3,23.33,NW,324,0.0,0.0,42,0.00,,---,0.00,VWS V14.00,2013-04-12 12:48:00,
2013-04-12 05:54:00,24.1,4.3,23.33,NW,324,0.0,0.0,42,0.00,,---,0.00,VWS V14.00,2013-04-12 12:54:00,
2013-04-12 05:59:00,24.1,4.3,23.33,NW,324,0.0,0.0,42,0.00,,---,0.00,VWS V14.00,2013-04-12 12:59:00,
2013-04-12 06:04:00,24.1,4.3,23.33,NW,324,0.0,0.0,42,0.00,,---,0.00,VWS V14.00,2013-04-12 13:04:00,
2013-04-12 06:09:00,24.3,4.5,23.33,NW,324,0.0,0.0,42,0.00,,---,0.00,VWS V14.00,2013-04-12 13:09:00,
2013-04-12 06:14:00,24.3,4.5,23.33,NW,324,0.0,0.0,42,0.00,,---,0.00,VWS V14.00,2013-04-12 13:14:00,
2013-04-12 06:19:00,24.3,4.5,23.33,NW,324,0.0,0.0,42,0.00,,---,0.00,VWS V14.00,2013-04-12 13:19:00,
2013-04-12 06:24:00,24.4,4.7,23.33,NW,324,0.0,0.0,42,0.00,,---,0.00,VWS V14.00,2013-04-12 13:24:00,
2013-04-12 06:30:00,24.4,4.7,23.33,NW,324,0.0,0.0,42,0.00,,---,0.00,VWS V14.00,2013-04-12 13:30:00,
2013-04-12 06:35:00,24.8,5.0,23.33,NW,324,0.0,0.0,42,0.00,,---,0.00,VWS V14.00,2013-04-12 13:35:00,
2013-04-12 06:40:00,25.2,5.3,23.33,NW,324,0.0,0.0,42,0.00,,---,0.00,VWS V14.00,2013-04-12 13:40:00,
2013-04-12 06:45:00,25.3,5.5,23.33,NW,324,0.0,0.0,42,0.00,,---,0.00,VWS V14.00,2013-04-12 13:45:00,
2013-04-12 06:50:00,25.9,6.0,23.33,NW,324,0.0,0.0,42,0.00,,---,0.00,VWS V14.00,2013-04-12 13:50:00,
2013-04-12 06:56:00,26.1,6.1,23.33,NW,324,0.0,0.0,42,0.00,,---,0.00,VWS V14.00,2013-04-12 13:56:00,
2013-04-12 07:01:00,26.6,6.6,23.33,NW,324,0.0,0.0,42,0.00,,---,0.00,VWS V14.00,2013-04-12 14:01:00,
2013-04-12 07:07:00,27.1,6.6,23.33,NW,324,0.0,0.0,41,0.00,,---,0.00,VWS V14.00,2013-04-12 14:07:00,
2013-04-12 07:12:00,27.7,7.1,23.33,NW,324,0.0,0.0,41,0.00,,---,0.00,VWS V14.00,2013-04-12 14:12:00,
2013-04-12 07:17:00,28.4,7.7,23.33,NW,324,0.0,0.0,41,0.00,,---,0.00,VWS V14.00,2013-04-12 14:17:00,
2013-04-12 07:22:00,28.9,8.2,23.33,NW,324,0.0,0.0,41,0.00,,---,0.00,VWS V14.00,2013-04-12 14:22:00,
2013-04-12 07:27:00,30.0,9.2,23.36,NW,324,0.0,0.0,41,0.00,,---,0.00,VWS V14.00,2013-04-12 14:27:00,
2013-04-12 07:33:00,30.9,10.0,23.36,NW,324,0.0,0.0,41,0.00,,---,0.00,VWS V14.00,2013-04-12 14:33:00,
2013-04-12 07:38:00,32.2,11.1,23.36,NW,324,0.0,0.0,41,0.00,,---,0.00,VWS V14.00,2013-04-12 14:38:00,
2013-04-12 07:43:00,33.3,12.1,23.36,NW,324,0.0,0.0,41,0.00,,---,0.00,VWS V14.00,2013-04-12 14:43:00,
2013-04-12 07:48:00,34.5,12.7,23.36,NW,324,0.0,0.0,40,0.00,,---,0.00,VWS V14.00,2013-04-12 14:48:00,
2013-04-12 07:54:00,36.0,14.0,23.36,NW,324,0.0,0.0,40,0.00,,---,0.00,VWS V14.00,2013-04-12 14:54:00,
2013-04-12 07:59:00,37.6,14.9,23.36,NW,324,0.0,0.0,39,0.00,,---,0.00,VWS V14.00,2013-04-12 14:59:00,
2013-04-12 08:04:00,38.8,16.0,23.36,NW,324,0.0,0.0,39,0.00,,---,0.00,VWS V14.00,2013-04-12 15:04:00,
2013-04-12 08:09:00,40.6,17.6,23.36,NW,324,0.0,0.0,39,0.00,,---,0.00,VWS V14.00,2013-04-12 15:09:00,
2013-04-12 08:14:00,42.1,18.9,23.36,NW,324,0.0,0.0,39,0.00,,---,0.00,VWS V14.00,2013-04-12 15:14:00,
2013-04-12 08:20:00,43.5,19.6,23.36,NW,324,0.0,0.0,38,0.00,,---,0.00,VWS V14.00,2013-04-12 15:20:00,
2013-04-12 08:25:00,45.0,20.9,23.36,NW,324,0.0,0.0,38,0.00,,---,0.00,VWS V14.00,2013-04-12 15:25:00,
2013-04-12 08:30:00,45.9,21.7,23.36,NE,46,0.0,0.0,38,0.00,,---,0.00,VWS V14.00,2013-04-12 15:30:00,
2013-04-12 08:35:00,47.3,22.4,23.36,East,98,2.7,2.7,37,0.00,,---,0.00,VWS V14.00,2013-04-12 15:35:00,
2013-04-12 08:40:00,48.4,23.3,23.36,ENE,70,0.0,2.2,37,0.00,,---,0.00,VWS V14.00,2013-04-12 15:40:00,
2013-04-12 08:46:00,49.5,24.3,23.36,ENE,77,0.0,0.0,37,0.00,,---,0.00,VWS V14.00,2013-04-12 15:46:00,
2013-04-12 08:51:00,50.5,25.2,23.36,NNW,339,3.1,4.0,37,0.00,,---,0.00,VWS V14.00,2013-04-12 15:51:00,
2013-04-12 08:56:00,51.4,26.0,23.36,ESE,104,2.2,3.1,37,0.00,,---,0.00,VWS V14.00,2013-04-12 15:56:00,
2013-04-12 09:02:00,52.2,26.0,23.36,NNE,13,2.7,2.7,36,0.00,,---,0.00,VWS V14.00,2013-04-12 16:02:00,
2013-04-12 09:07:00,52.9,26.7,23.36,North,353,0.0,0.0,36,0.00,,---,0.00,VWS V14.00,2013-04-12 16:07:00,
2013-04-12 09:12:00,53.4,27.1,23.36,North,6,2.2,3.1,36,0.00,,---,0.00,VWS V14.00,2013-04-12 16:12:00,
2013-04-12 09:17:00,54.0,27.6,23.36,ENE,67,3.6,3.6,36,0.00,,---,0.00,VWS V14.00,2013-04-12 16:17:00,
2013-04-12 09:22:00,54.3,28.0,23.36,ESE,105,2.7,2.7,36,0.00,,---,0.00,VWS V14.00,2013-04-12 16:22:00,
2013-04-12 09:27:00,54.5,28.1,23.36,NNE,18,5.4,5.8,36,0.00,,---,0.00,VWS V14.00,2013-04-12 16:27:00,
2013-04-12 09:33:00,54.9,28.4,23.36,ESE,112,4.0,4.0,36,0.00,,---,0.00,VWS V14.00,2013-04-12 16:33:00,
2013-04-12 09:38:00,55.8,28.5,23.36,East,87,3.1,4.0,35,0.00,,---,0.00,VWS V14.00,2013-04-12 16:38:00,
2013-04-12 09:43:00,55.9,28.7,23.36,North,357,2.7,4.9,35,0.00,,---,0.00,VWS V14.00,2013-04-12 16:43:00,
2013-04-12 09:49:00,55.8,28.5,23.36,NNE,15,0.0,3.1,35,0.00,,---,0.00,VWS V14.00,2013-04-12 16:49:00,
2013-04-12 09:54:00,56.1,28.9,23.36,SE,140,4.9,5.4,35,0.00,,---,0.00,VWS V14.00,2013-04-12 16:54:00,
2013-04-12 09:59:00,56.7,29.3,23.36,SW,236,3.1,3.6,35,0.00,,---,0.00,VWS V14.00,2013-04-12 16:59:00,
2013-04-12 10:04:00,57.0,29.7,23.36,East,84,2.7,2.7,35,0.00,,---,0.00,VWS V14.00,2013-04-12 17:04:00,
2013-04-12 10:10:00,57.7,30.3,23.36,SSE,148,3.6,4.0,35,0.00,,---,0.00,VWS V14.00,2013-04-12 17:10:00,
2013-04-12 10:15:00,58.1,30.6,23.36,SE,125,2.7,4.0,35,0.00,,---,0.00,VWS V14.00,2013-04-12 17:15:00,
2013-04-12 10:20:00,58.8,31.2,23.36,WSW,251,3.6,3.6,35,0.00,,---,0.00,VWS V14.00,2013-04-12 17:20:00,
2013-04-12 10:25:00,59.5,31.9,23.36,North,350,3.1,5.8,35,0.00,,---,0.00,VWS V14.00,2013-04-12 17:25:00,
2013-04-12 10:30:00,60.3,32.5,23.36,South,176,2.7,2.7,35,0.00,,---,0.00,VWS V14.00,2013-04-12 17:30:00,
2013-04-12 10:35:00,60.6,32.8,23.36,East,97,3.6,3.6,35,0.00,,---,0.00,VWS V14.00,2013-04-12 17:35:00,
2013-04-12 10:41:00,61.3,32.8,23.36,SE,135,2.7,2.7,34,0.00,,---,0.00,VWS V14.00,2013-04-12 17:41:00,
2013-04-12 10:47:00,62.2,33.5,23.36,SE,135,2.7,2.7,34,0.00,,---,0.00,VWS V14.00,2013-04-12 17:47:00,
2013-04-12 10:52:00,62.1,33.4,23.36,SE,135,2.7,2.7,34,0.00,,---,0.00,VWS V14.00,2013-04-12 17:52:00,
2013-04-12 10:58:00,62.1,33.4,23.36,SE,129,7.6,7.6,34,0.00,,---,0.00,VWS V14.00,2013-04-12 17:58:00,
2013-04-12 11:03:00,62.4,33.7,23.36,SE,129,7.6,7.6,34,0.00,,---,0.00,VWS V14.00,2013-04-12 18:03:00,
2013-04-12 11:08:00,62.8,34.0,23.36,SE,129,7.6,7.6,34,0.00,,---,0.00,VWS V14.00,2013-04-12 18:08:00,
2013-04-12 11:13:00,63.5,34.7,23.36,NNW,337,2.7,2.7,34,0.00,,---,0.00,VWS V14.00,2013-04-12 18:13:00,
2013-04-12 11:18:00,64.0,35.1,23.36,North,0,8.1,8.1,34,0.00,,---,0.00,VWS V14.00,2013-04-12 18:18:00,
2013-04-12 11:23:00,63.5,34.7,23.36,ENE,65,5.4,5.4,34,0.00,,---,0.00,VWS V14.00,2013-04-12 18:23:00,
2013-04-12 11:28:00,63.5,34.7,23.36,ESE,103,10.1,10.5,34,0.00,,---,0.00,VWS V14.00,2013-04-12 18:28:00,
2013-04-12 12:26:00,60.6,32.8,23.36,North,0,2.2,3.6,35,0.00,,---,0.00,VWS V14.00,2013-04-12 19:26:00,
2013-04-12 12:27:00,60.6,32.8,23.36,North,0,2.2,2.2,35,0.00,,---,0.00,VWS V14.00,2013-04-12 19:27:00,
2013-04-12 12:28:00,60.4,32.7,23.36,North,4,3.1,5.8,35,0.00,,---,0.00,VWS V14.00,2013-04-12 19:28:00,
2013-04-12 12:33:00,60.1,32.4,23.36,ESE,104,3.6,3.6,35,0.00,,---,0.00,VWS V14.00,2013-04-12 19:33:00,
2013-04-12 12:39:00,59.5,31.9,23.36,North,9,3.1,4.5,35,0.00,,---,0.00,VWS V14.00,2013-04-12 19:39:00,
2013-04-12 12:44:00,59.4,31.7,23.36,North,357,2.7,2.7,35,0.00,,---,0.00,VWS V14.00,2013-04-12 19:44:00,
2013-04-12 12:49:00,59.7,32.0,23.36,NNE,19,3.1,3.1,35,0.00,,---,0.00,VWS V14.00,2013-04-12 19:49:00,
2013-04-12 12:54:00,60.1,32.4,23.36,NNE,30,0.0,3.6,35,0.00,,---,0.00,VWS V14.00,2013-04-12 19:54:00,
2013-04-12 13:00:00,60.8,32.3,23.33,North,357,2.7,6.3,34,0.00,,---,0.00,VWS V14.00,2013-04-12 20:00:00,
2013-04-12 13:05:00,62.6,33.9,23.33,ENE,68,3.6,6.3,34,0.00,,---,0.00,VWS V14.00,2013-04-12 20:05:00,
2013-04-12 13:10:00,63.7,34.8,23.33,ENE,69,3.6,3.6,34,0.00,,---,0.00,VWS V14.00,2013-04-12 20:10:00,
2013-04-12 13:15:00,64.0,35.1,23.33,ENE,66,2.7,3.1,34,0.00,,---,0.00,VWS V14.00,2013-04-12 20:15:00,
2013-04-12 13:20:00,64.4,34.7,23.33,ESE,117,6.3,6.3,33,0.00,,---,0.00,VWS V14.00,2013-04-12 20:20:00,
2013-04-12 13:25:00,64.0,35.1,23.33,East,79,3.1,3.1,34,0.00,,---,0.00,VWS V14.00,2013-04-12 20:25:00,
2013-04-12 13:30:00,64.4,34.7,23.33,North,3,3.6,4.0,33,0.00,,---,0.00,VWS V14.00,2013-04-12 20:30:00,
2013-04-12 13:35:00,63.9,35.0,23.33,ESE,105,3.1,4.0,34,0.00,,---,0.00,VWS V14.00,2013-04-12 20:35:00,
2013-04-12 13:40:00,63.7,34.8,23.33,ENE,76,0.0,4.0,34,0.00,,---,0.00,VWS V14.00,2013-04-12 20:40:00,
2013-04-12 13:46:00,63.1,34.3,23.33,ESE,108,3.1,3.1,34,0.00,,---,0.00,VWS V14.00,2013-04-12 20:46:00,
2013-04-12 13:51:00,62.4,33.7,23.33,SSE,159,2.7,2.7,34,0.00,,---,0.00,VWS V14.00,2013-04-12 20:51:00,
2013-04-12 13:56:00,62.4,33.7,23.33,SSE,158,3.6,3.6,34,0.00,,---,0.00,VWS V14.00,2013-04-12 20:56:00,
2013-04-12 14:01:00,62.1,33.4,23.33,ENE,65,5.4,5.8,34,0.00,,---,0.00,VWS V14.00,2013-04-12 21:01:00,
2013-04-12 14:06:00,61.7,33.1,23.33,SSE,168,4.0,5.4,34,0.00,,---,0.00,VWS V14.00,2013-04-12 21:06:00,
2013-04-12 14:11:00,61.5,32.9,23.33,ESE,118,3.6,3.6,34,0.00,,---,0.00,VWS V14.00,2013-04-12 21:11:00,
2013-04-12 14:17:00,61.5,32.9,23.33,ESE,110,2.7,2.7,34,0.00,,---,0.00,VWS V14.00,2013-04-12 21:17:00,
2013-04-12 14:22:00,61.7,33.1,23.33,NE,56,3.6,4.9,34,0.00,,---,0.00,VWS V14.00,2013-04-12 21:22:00,
2013-04-12 14:27:00,62.2,33.5,23.33,East,98,4.9,6.3,34,0.00,,---,0.00,VWS V14.00,2013-04-12 21:27:00,
2013-04-12 14:32:00,62.8,34.0,23.33,SSE,159,3.1,4.0,34,0.00,,---,0.00,VWS V14.00,2013-04-12 21:32:00,
2013-04-12 14:37:00,63.1,34.3,23.33,SSE,164,3.6,3.6,34,0.00,,---,0.00,VWS V14.00,2013-04-12 21:37:00,
2013-04-12 14:42:00,63.3,34.5,23.33,SE,140,3.1,3.1,34,0.00,,---,0.00,VWS V14.00,2013-04-12 21:42:00,
2013-04-12 14:47:00,63.1,34.3,23.33,SE,140,3.1,3.1,34,0.00,,---,0.00,VWS V14.00,2013-04-12 21:47:00,
2013-04-12 14:52:00,63.0,34.2,23.33,SSE,154,3.1,4.0,34,0.00,,---,0.00,VWS V14.00,2013-04-12 21:52:00,
2013-04-12 14:57:00,63.0,34.2,23.33,SE,139,4.0,4.0,34,0.00,,---,0.00,VWS V14.00,2013-04-12 21:57:00,
2013-04-12 15:02:00,63.9,35.0,23.33,SE,146,4.0,4.0,34,0.00,,---,0.00,VWS V14.00,2013-04-12 22:02:00,
2013-04-12 15:07:00,64.6,34.8,23.33,SSE,167,3.1,3.6,33,0.00,,---,0.00,VWS V14.00,2013-04-12 22:07:00,
2013-04-12 15:13:00,66.2,36.3,23.33,SSW,193,3.1,3.1,33,0.00,,---,0.00,VWS V14.00,2013-04-12 22:13:00,
2013-04-12 15:18:00,66.6,36.6,23.33,East,93,5.4,5.4,33,0.00,,---,0.00,VWS V14.00,2013-04-12 22:18:00,
2013-04-12 15:23:00,65.7,35.8,23.33,SSE,147,3.6,3.6,33,0.00,,---,0.00,VWS V14.00,2013-04-12 22:23:00,
2013-04-12 15:28:00,65.5,35.6,23.33,SSE,147,3.6,3.6,33,0.00,,---,0.00,VWS V14.00,2013-04-12 22:28:00,
2013-04-12 15:33:00,65.1,35.3,23.33,SE,139,3.6,3.6,33,0.00,,---,0.00,VWS V14.00,2013-04-12 22:33:00,
2013-04-12 15:38:00,64.4,34.7,23.33,SSE,158,2.2,2.2,33,0.00,,---,0.00,VWS V14.00,2013-04-12 22:38:00,
2013-04-12 15:43:00,63.3,34.5,23.33,SE,132,0.0,0.0,34,0.00,,---,0.00,VWS V14.00,2013-04-12 22:43:00,
2013-04-12 15:48:00,62.4,33.7,23.33,ESE,113,2.2,2.7,34,0.00,,---,0.00,VWS V14.00,2013-04-12 22:48:00,
2013-04-12 15:53:00,61.5,32.9,23.33,North,11,3.1,4.0,34,0.00,,---,0.00,VWS V14.00,2013-04-12 22:53:00,
2013-04-12 15:59:00,60.3,32.5,23.33,ENE,73,2.2,2.2,35,0.00,,---,0.00,VWS V14.00,2013-04-12 22:59:00,
2013-04-12 16:04:00,59.5,31.9,23.33,North,357,2.7,2.7,35,0.00,,---,0.00,VWS V14.00,2013-04-12 23:04:00,
2013-04-12 16:09:00,58.8,31.2,23.33,ENE,61,3.1,3.6,35,0.00,,---,0.00,VWS V14.00,2013-04-12 23:09:00,
2013-04-12 16:14:00,57.7,30.3,23.33,NE,36,3.6,6.3,35,0.00,,---,0.00,VWS V14.00,2013-04-12 23:14:00,
2013-04-12 16:19:00,56.8,29.5,23.33,SE,130,4.0,4.0,35,0.00,,---,0.00,VWS V14.00,2013-04-12 23:19:00,
2013-04-12 16:24:00,55.9,28.7,23.33,NNE,25,4.0,5.8,35,0.00,,---,0.00,VWS V14.00,2013-04-12 23:24:00,
2013-04-12 16:29:00,55.4,28.2,23.36,ESE,105,2.7,7.6,35,0.00,,---,0.00,VWS V14.00,2013-04-12 23:29:00,
2013-04-12 16:35:00,54.9,28.4,23.36,SSE,151,3.1,4.0,36,0.00,,---,0.00,VWS V14.00,2013-04-12 23:35:00,
2013-04-12 16:40:00,54.7,28.3,23.36,SSE,161,5.8,5.8,36,0.00,,---,0.00,VWS V14.00,2013-04-12 23:40:00,
2013-04-12 16:45:00,54.5,28.1,23.36,South,178,0.0,0.0,36,0.00,,---,0.00,VWS V14.00,2013-04-12 23:45:00,
2013-04-12 16:50:00,54.5,28.1,23.36,SSE,152,6.3,6.3,36,0.00,,---,0.00,VWS V14.00,2013-04-12 23:50:00,
2013-04-12 16:55:00,54.5,28.1,23.36,SSE,151,5.4,5.8,36,0.00,,---,0.00,VWS V14.00,2013-04-12 23:55:00,
2013-04-12 17:00:00,54.3,28.0,23.33,SE,144,3.6,7.2,36,0.00,,---,0.00,VWS V14.00,2013-04-13 00:00:00,
2013-04-12 17:05:00,54.3,28.0,23.33,SSE,153,3.1,4.0,36,0.00,,---,0.00,VWS V14.00,2013-04-13 00:05:00,
2013-04-12 17:10:00,54.0,27.6,23.33,SE,127,4.0,5.4,36,0.00,,---,0.00,VWS V14.00,2013-04-13 00:10:00,
2013-04-12 17:16:00,53.8,27.5,23.33,ESE,120,3.1,3.1,36,0.00,,---,0.00,VWS V14.00,2013-04-13 00:16:00,
2013-04-12 17:21:00,53.8,27.5,23.33,East,81,2.7,2.7,36,0.00,,---,0.00,VWS V14.00,2013-04-13 00:21:00,
2013-04-12 17:26:00,54.1,27.8,23.33,SE,126,3.6,3.6,36,0.00,,---,0.00,VWS V14.00,2013-04-13 00:26:00,
2013-04-12 17:32:00,54.3,28.0,23.33,South,187,2.2,2.2,36,0.00,,---,0.00,VWS V14.00,2013-04-13 00:32:00,
2013-04-12 17:37:00,54.7,28.3,23.33,SSE,153,5.4,5.4,36,0.00,,---,0.00,VWS V14.00,2013-04-13 00:37:00,
2013-04-12 17:42:00,55.0,28.6,23.33,SE,142,2.7,3.6,36,0.00,,---,0.00,VWS V14.00,2013-04-13 00:42:00,
2013-04-12 17:47:00,54.9,28.4,23.33,ESE,123,0.0,0.0,36,0.00,,---,0.00,VWS V14.00,2013-04-13 00:47:00,
2013-04-12 17:52:00,54.5,28.1,23.33,SSE,155,3.6,3.6,36,0.00,,---,0.00,VWS V14.00,2013-04-13 00:52:00,
2013-04-12 17:57:00,54.1,27.8,23.33,East,98,3.1,4.0,36,0.00,,---,0.00,VWS V14.00,2013-04-13 00:57:00,
2013-04-12 18:02:00,53.8,27.5,23.33,SSE,159,2.7,3.1,36,0.00,,---,0.00,VWS V14.00,2013-04-13 01:02:00,
2013-04-12 18:07:00,53.6,27.3,23.33,ESE,120,2.7,3.6,36,0.00,,---,0.00,VWS V14.00,2013-04-13 01:07:00,
2013-04-12 18:12:00,53.4,27.1,23.33,SSE,160,0.0,0.0,36,0.00,,---,0.00,VWS V14.00,2013-04-13 01:12:00,
2013-04-12 18:17:00,53.1,26.8,23.33,SSE,147,2.2,3.6,36,0.00,,---,0.00,VWS V14.00,2013-04-13 01:17:00,
2013-04-12 18:22:00,52.7,26.5,23.33,SE,141,0.0,0.0,36,0.00,,---,0.00,VWS V14.00,2013-04-13 01:22:00,
2013-04-12 18:27:00,52.3,26.2,23.33,SE,136,0.0,0.0,36,0.00,,---,0.00,VWS V14.00,2013-04-13 01:27:00,
2013-04-12 18:32:00,52.0,25.9,23.33,SE,136,0.0,0.0,36,0.00,,---,0.00,VWS V14.00,2013-04-13 01:32:00,
2013-04-12 18:37:00,51.4,26.0,23.33,SE,136,0.0,0.0,37,0.00,,---,0.00,VWS V14.00,2013-04-13 01:37:00,
2013-04-12 18:42:00,50.9,25.6,23.33,SE,136,0.0,0.0,37,0.00,,---,0.00,VWS V14.00,2013-04-13 01:42:00,
2013-04-12 18:48:00,50.4,25.1,23.33,SE,136,0.0,0.0,37,0.00,,---,0.00,VWS V14.00,2013-04-13 01:48:00,
2013-04-12 18:53:00,49.8,24.6,23.33,SE,136,0.0,0.0,37,0.00,,---,0.00,VWS V14.00,2013-04-13 01:53:00,
2013-04-12 18:58:00,49.1,24.0,23.33,SE,136,0.0,0.0,37,0.00,,---,0.00,VWS V14.00,2013-04-13 01:58:00,
2013-04-12 19:03:00,48.4,23.3,23.33,SE,136,0.0,0.0,37,0.00,,---,0.00,VWS V14.00,2013-04-13 02:03:00,
2013-04-12 19:08:00,47.8,22.9,23.33,SE,136,0.0,0.0,37,0.00,,---,0.00,VWS V14.00,2013-04-13 02:08:00,
2013-04-12 19:13:00,47.1,22.2,23.33,SE,136,0.0,0.0,37,0.00,,---,0.00,VWS V14.00,2013-04-13 02:13:00,
2013-04-12 19:19:00,46.6,21.7,23.33,SE,136,0.0,0.0,37,0.00,,---,0.00,VWS V14.00,2013-04-13 02:19:00,
2013-04-12 19:24:00,45.9,21.7,23.33,SE,136,0.0,0.0,38,0.00,,---,0.00,VWS V14.00,2013-04-13 02:24:00,
2013-04-12 19:29:00,45.1,21.1,23.36,SE,136,0.0,0.0,38,0.00,,---,0.00,VWS V14.00,2013-04-13 02:29:00,
2013-04-12 19:34:00,44.6,20.6,23.36,SE,136,0.0,0.0,38,0.00,,---,0.00,VWS V14.00,2013-04-13 02:34:00,
2013-04-12 19:39:00,44.1,20.1,23.36,SE,136,0.0,0.0,38,0.00,,---,0.00,VWS V14.00,2013-04-13 02:39:00,
2013-04-12 19:44:00,43.5,19.6,23.36,SE,136,0.0,0.0,38,0.00,,---,0.00,VWS V14.00,2013-04-13 02:44:00,
2013-04-12 19:49:00,43.3,19.5,23.36,SE,136,0.0,0.0,38,0.00,,---,0.00,VWS V14.00,2013-04-13 02:49:00,
2013-04-12 19:54:00,43.0,19.1,23.36,SE,136,0.0,0.0,38,0.00,,---,0.00,VWS V14.00,2013-04-13 02:54:00,
2013-04-12 19:59:00,42.8,19.0,23.36,SE,136,0.0,0.0,38,0.00,,---,0.00,VWS V14.00,2013-04-13 02:59:00,
2013-04-12 20:05:00,42.6,19.4,23.36,SE,136,0.0,0.0,39,0.00,,---,0.00,VWS V14.00,2013-04-13 03:05:00,
2013-04-12 20:10:00,42.3,19.1,23.36,SE,136,0.0,0.0,39,0.00,,---,0.00,VWS V14.00,2013-04-13 03:10:00,
2013-04-12 20:15:00,42.1,18.9,23.36,SE,136,0.0,0.0,39,0.00,,---,0.00,VWS V14.00,2013-04-13 03:15:00,
2013-04-12 20:20:00,42.1,18.9,23.36,SE,136,0.0,0.0,39,0.00,,---,0.00,VWS V14.00,2013-04-13 03:20:00,
2013-04-12 20:26:00,42.1,18.9,23.36,SE,136,0.0,0.0,39,0.00,,---,0.00,VWS V14.00,2013-04-13 03:26:00,
2013-04-12 20:32:00,42.1,18.9,23.36,SE,136,0.0,0.0,39,0.00,,---,0.00,VWS V14.00,2013-04-13 03:32:00,
2013-04-12 20:37:00,41.9,18.8,23.36,North,357,0.0,0.0,39,0.00,,---,0.00,VWS V14.00,2013-04-13 03:37:00,
2013-04-12 20:42:00,42.1,18.9,23.36,North,357,0.0,0.0,39,0.00,,---,0.00,VWS V14.00,2013-04-13 03:42:00,
2013-04-12 20:47:00,42.3,19.1,23.36,North,357,0.0,0.0,39,0.00,,---,0.00,VWS V14.00,2013-04-13 03:47:00,
2013-04-12 20:52:00,42.4,19.2,23.36,North,357,0.0,0.0,39,0.00,,---,0.00,VWS V14.00,2013-04-13 03:52:00,
2013-04-12 20:57:00,42.4,19.2,23.36,North,357,0.0,0.0,39,0.00,,---,0.00,VWS V14.00,2013-04-13 03:57:00,
2013-04-12 21:00:00,42.6,19.4,23.39,North,357,0.0,0.0,39,0.00,,---,0.00,VWS V14.00,2013-04-13 04:00:00,
2013-04-12 21:01:00,42.6,19.4,23.39,North,357,0.0,0.0,39,0.00,,---,0.00,VWS V14.00,2013-04-13 04:01:00,
2013-04-12 21:06:00,42.8,19.0,23.39,North,357,0.0,0.0,38,0.00,,---,0.00,VWS V14.00,2013-04-13 04:06:00,
2013-04-12 21:11:00,43.0,19.1,23.39,North,357,0.0,0.0,38,0.00,,---,0.00,VWS V14.00,2013-04-13 04:11:00,
2013-04-12 21:16:00,43.0,19.1,23.39,North,357,0.0,0.0,38,0.00,,---,0.00,VWS V14.00,2013-04-13 04:16:00,
2013-04-12 21:21:00,43.0,19.1,23.39,North,357,0.0,0.0,38,0.00,,---,0.00,VWS V14.00,2013-04-13 04:21:00,
2013-04-12 21:26:00,42.8,19.0,23.39,North,357,0.0,0.0,38,0.00,,---,0.00,VWS V14.00,2013-04-13 04:26:00,
2013-04-12 21:31:00,42.8,19.0,23.39,North,357,0.0,0.0,38,0.00,,---,0.00,VWS V14.00,2013-04-13 04:31:00,
2013-04-12 21:36:00,43.0,19.1,23.39,North,357,0.0,0.0,38,0.00,,---,0.00,VWS V14.00,2013-04-13 04:36:00,
2013-04-12 21:42:00,43.0,19.1,23.39,North,357,0.0,0.0,38,0.00,,---,0.00,VWS V14.00,2013-04-13 04:42:00,
2013-04-12 21:47:00,43.0,19.1,23.39,North,357,0.0,0.0,38,0.00,,---,0.00,VWS V14.00,2013-04-13 04:47:00,
2013-04-12 21:52:00,42.8,19.0,23.39,North,357,0.0,0.0,38,0.00,,---,0.00,VWS V14.00,2013-04-13 04:52:00,
2013-04-12 21:57:00,42.8,19.0,23.39,North,357,0.0,0.0,38,0.00,,---,0.00,VWS V14.00,2013-04-13 04:57:00,
2013-04-12 22:02:00,42.8,19.0,23.39,North,357,0.0,0.0,38,0.00,,---,0.00,VWS V14.00,2013-04-13 05:02:00,
2013-04-12 22:07:00,42.8,19.0,23.39,North,357,0.0,0.0,38,0.00,,---,0.00,VWS V14.00,2013-04-13 05:07:00,
2013-04-12 22:13:00,42.8,19.0,23.39,North,357,0.0,0.0,38,0.00,,---,0.00,VWS V14.00,2013-04-13 05:13:00,
2013-04-12 22:18:00,42.8,19.0,23.39,North,357,0.0,0.0,38,0.00,,---,0.00,VWS V14.00,2013-04-13 05:18:00,
2013-04-12 22:23:00,43.0,19.1,23.39,North,357,0.0,0.0,38,0.00,,---,0.00,VWS V14.00,2013-04-13 05:23:00,
2013-04-12 22:28:00,43.0,19.1,23.39,North,357,0.0,0.0,38,0.00,,---,0.00,VWS V14.00,2013-04-13 05:28:00,
2013-04-12 22:33:00,43.0,19.1,23.39,North,357,0.0,0.0,38,0.00,,---,0.00,VWS V14.00,2013-04-13 05:33:00,
2013-04-12 22:38:00,43.0,19.1,23.39,North,357,0.0,0.0,38,0.00,,---,0.00,VWS V14.00,2013-04-13 05:38:00,
2013-04-12 22:43:00,43.0,19.1,23.39,North,357,0.0,0.0,38,0.00,,---,0.00,VWS V14.00,2013-04-13 05:43:00,
2013-04-12 22:49:00,43.2,19.3,23.39,North,357,0.0,0.0,38,0.00,,---,0.00,VWS V14.00,2013-04-13 05:49:00,
2013-04-12 22:54:00,43.3,19.5,23.39,WSW,249,2.7,3.1,38,0.00,,---,0.00,VWS V14.00,2013-04-13 05:54:00,
2013-04-12 22:59:00,43.5,19.6,23.39,SSW,198,2.7,4.0,38,0.00,,---,0.00,VWS V14.00,2013-04-13 05:59:00,
2013-04-12 23:04:00,44.6,20.6,23.39,West,270,0.0,0.0,38,0.00,,---,0.00,VWS V14.00,2013-04-13 06:04:00,
2013-04-12 23:09:00,44.8,20.7,23.39,West,270,0.0,0.0,38,0.00,,---,0.00,VWS V14.00,2013-04-13 06:09:00,
2013-04-12 23:14:00,44.8,20.7,23.39,West,270,0.0,0.0,38,0.00,,---,0.00,VWS V14.00,2013-04-13 06:14:00,
2013-04-12 23:19:00,44.6,20.6,23.39,West,270,0.0,0.0,38,0.00,,---,0.00,VWS V14.00,2013-04-13 06:19:00,
2013-04-12 23:24:00,44.4,20.4,23.39,West,270,0.0,0.0,38,0.00,,---,0.00,VWS V14.00,2013-04-13 06:24:00,
2013-04-12 23:29:00,44.2,20.3,23.36,West,270,0.0,0.0,38,0.00,,---,0.00,VWS V14.00,2013-04-13 06:29:00,
2013-04-12 23:35:00,43.9,19.9,23.36,West,270,0.0,0.0,38,0.00,,---,0.00,VWS V14.00,2013-04-13 06:35:00,
2013-04-12 23:40:00,43.3,19.5,23.36,West,270,0.0,0.0,38,0.00,,---,0.00,VWS V14.00,2013-04-13 06:40:00,
2013-04-12 23:46:00,42.8,19.0,23.39,West,270,0.0,0.0,38,0.00,,---,0.00,VWS V14.00,2013-04-13 06:46:00,
2013-04-12 23:51:00,42.3,19.1,23.39,West,270,0.0,0.0,39,0.00,,---,0.00,VWS V14.00,2013-04-13 06:51:00,
2013-04-12 23:56:00,41.7,18.6,23.39,West,270,0.0,0.0,39,0.00,,---,0.00,VWS V14.00,2013-04-13 06:56:00,